Time;durP1;ratioP1;P1;durP2;ratioP2;P2;SDS_P1;SDS_P2;PMS_P1;PMS_P2;Temp;Humidity;BMP_temperature;BMP_pressure;BME280_temperature;BME280_humidity;BME280_pressure;Samples;Min_cycle;Max_cycle;Signal;HPM_P1;HPM_P2
2022/09/30 00:01:24;;;;;;;38.25;23.67;;;8.20;99.90;;;;;;5050200;28;20524;-63
2022/09/30 00:03:51;;;;;;;38.95;22.88;;;8.30;99.90;;;;;;5048665;28;20028;-64
2022/09/30 00:06:19;;;;;;;43.05;24.45;;;8.20;99.90;;;;;;5032572;28;20078;-63
2022/09/30 00:08:46;;;;;;;40.55;23.83;;;8.30;99.90;;;;;;5050041;28;20090;-62
2022/09/30 00:11:15;;;;;;;42.17;24.55;;;8.30;99.90;;;;;;5049978;28;20025;-61
2022/09/30 00:13:41;;;;;;;41.03;23.95;;;8.30;99.90;;;;;;5048631;28;20056;-62
2022/09/30 00:16:09;;;;;;;42.83;24.17;;;8.30;99.90;;;;;;5050206;28;20029;-61
2022/09/30 00:18:36;;;;;;;40.22;24.40;;;8.30;99.90;;;;;;5049887;28;20071;-64
2022/09/30 00:21:03;;;;;;;36.15;22.40;;;8.30;99.90;;;;;;5049814;28;20068;-62
2022/09/30 00:23:29;;;;;;;39.83;23.08;;;8.40;99.90;;;;;;5049944;28;20109;-63
2022/09/30 00:26:03;;;;;;;38.08;24.23;;;8.40;99.90;;;;;;5048451;28;20115;-62
2022/09/30 00:28:30;;;;;;;39.03;22.98;;;8.50;99.90;;;;;;5048612;28;20017;-63
2022/09/30 00:31:00;;;;;;;38.70;24.65;;;8.50;99.90;;;;;;5032141;28;20064;-62
2022/09/30 00:33:27;;;;;;;39.30;24.52;;;8.40;99.90;;;;;;5049845;28;20017;-64
2022/09/30 00:35:53;;;;;;;38.70;23.13;;;8.50;99.90;;;;;;5048458;28;20033;-63
2022/09/30 00:38:18;;;;;;;40.90;23.85;;;8.50;99.90;;;;;;5031821;28;20040;-61
2022/09/30 00:40:44;;;;;;;44.65;24.50;;;8.60;99.90;;;;;;5052823;28;20037;-62
2022/09/30 00:43:16;;;;;;;43.03;24.50;;;8.60;99.90;;;;;;5054068;28;20098;-64
2022/09/30 00:45:58;;;;;;;40.63;24.85;;;8.60;99.90;;;;;;5052399;28;20036;-63
2022/09/30 00:48:30;;;;;;;38.78;23.58;;;8.60;99.90;;;;;;5052385;28;20518;-63
2022/09/30 00:50:57;;;;;;;37.45;24.00;;;8.70;99.90;;;;;;5053728;28;20025;-62
2022/09/30 00:53:46;;;;;;;38.88;24.48;;;8.70;99.90;;;;;;5053656;28;20029;-63
2022/09/30 00:56:27;;;;;;;34.45;24.10;;;8.70;99.90;;;;;;5032340;28;20132;-61
2022/09/30 00:58:59;;;;;;;41.42;23.60;;;8.70;99.90;;;;;;5032881;28;20041;-61
2022/09/30 01:01:25;;;;;;;36.47;23.55;;;8.70;99.90;;;;;;5033351;28;20049;-63
2022/09/30 01:03:53;;;;;;;34.78;22.42;;;8.80;99.90;;;;;;5033267;28;20037;-63
2022/09/30 01:06:21;;;;;;;36.42;22.95;;;8.80;99.90;;;;;;5031805;28;20029;-62
2022/09/30 01:08:47;;;;;;;34.72;22.02;;;8.80;99.90;;;;;;5033541;28;20024;-61
2022/09/30 01:11:13;;;;;;;39.78;22.65;;;8.80;99.90;;;;;;5033358;28;20029;-63
2022/09/30 01:13:41;;;;;;;33.13;21.23;;;8.90;99.90;;;;;;5033298;28;20029;-63
2022/09/30 01:16:27;;;;;;;39.60;22.73;;;8.90;99.90;;;;;;5033137;28;20033;-62
2022/09/30 01:19:12;;;;;;;36.80;24.60;;;8.90;99.90;;;;;;5033086;28;20030;-62
2022/09/30 01:22:01;;;;;;;37.55;23.25;;;8.90;99.90;;;;;;5033061;28;20060;-62
2022/09/30 01:24:35;;;;;;;32.85;21.92;;;8.90;99.90;;;;;;5033081;28;20026;-62
2022/09/30 01:27:23;;;;;;;39.05;23.13;;;9.00;99.90;;;;;;5032914;28;20147;-61
2022/09/30 01:30:07;;;;;;;33.75;22.73;;;9.00;99.90;;;;;;5033131;28;20029;-62
2022/09/30 01:32:57;;;;;;;32.53;22.83;;;9.00;99.90;;;;;;5032825;28;20037;-64
2022/09/30 01:35:28;;;;;;;32.80;21.80;;;9.00;99.90;;;;;;5032876;28;20025;-62
2022/09/30 01:38:19;;;;;;;37.75;23.27;;;9.00;99.90;;;;;;5033098;28;20029;-64
2022/09/30 01:40:55;;;;;;;38.53;22.63;;;9.10;99.90;;;;;;5032680;28;20465;-62
2022/09/30 01:43:48;;;;;;;40.55;23.63;;;9.10;99.90;;;;;;5033012;28;20030;-61
2022/09/30 01:46:32;;;;;;;30.92;22.33;;;9.10;99.90;;;;;;5032848;28;20029;-61
2022/09/30 01:49:25;;;;;;;31.83;21.55;;;9.10;99.90;;;;;;5032791;28;20035;-63
2022/09/30 01:51:59;;;;;;;35.35;23.10;;;9.10;99.90;;;;;;5032375;28;20572;-62
2022/09/30 01:54:40;;;;;;;34.03;22.70;;;9.10;99.90;;;;;;5031282;28;20379;-62
2022/09/30 01:57:12;;;;;;;35.80;22.67;;;9.10;99.90;;;;;;5031048;28;20060;-62
2022/09/30 01:59:55;;;;;;;42.22;24.55;;;9.10;99.90;;;;;;5032384;28;20362;-62
2022/09/30 02:02:26;;;;;;;40.90;25.92;;;9.20;99.90;;;;;;5032499;28;20543;-63
2022/09/30 02:04:56;;;;;;;41.70;23.58;;;9.20;99.90;;;;;;5032357;28;20025;-62
2022/09/30 02:07:47;;;;;;;34.78;23.80;;;9.10;99.90;;;;;;5032454;28;20035;-61
2022/09/30 02:10:24;;;;;;;37.15;24.60;;;9.20;99.90;;;;;;5031737;28;20077;-62
2022/09/30 02:12:56;;;;;;;40.33;23.85;;;9.20;99.90;;;;;;5032402;28;20030;-63
2022/09/30 02:15:29;;;;;;;34.42;23.33;;;9.20;99.90;;;;;;5031032;28;20032;-61
2022/09/30 02:18:05;;;;;;;35.25;23.13;;;9.20;99.90;;;;;;5032452;28;20555;-63
2022/09/30 02:20:36;;;;;;;39.13;23.67;;;9.30;99.90;;;;;;5032036;28;20431;-62
2022/09/30 02:23:03;;;;;;;40.60;24.23;;;9.30;99.90;;;;;;5032222;28;20038;-65
2022/09/30 02:25:34;;;;;;;36.53;23.35;;;9.30;99.90;;;;;;5032171;28;20026;-64
2022/09/30 02:28:07;;;;;;;35.55;23.92;;;9.30;99.90;;;;;;5030883;28;20393;-63
2022/09/30 02:30:35;;;;;;;43.03;23.88;;;9.30;99.90;;;;;;5032086;28;20075;-64
2022/09/30 02:33:08;;;;;;;35.95;23.77;;;9.20;99.90;;;;;;5031836;28;20056;-63
2022/09/30 02:35:44;;;;;;;41.17;23.73;;;9.30;99.90;;;;;;5030525;28;20040;-61
2022/09/30 02:38:16;;;;;;;46.42;23.88;;;9.30;99.90;;;;;;5030371;28;20465;-62
2022/09/30 02:40:51;;;;;;;35.67;23.00;;;9.30;99.90;;;;;;5031762;28;20037;-62
2022/09/30 02:43:19;;;;;;;40.28;25.50;;;9.30;99.90;;;;;;5031897;28;20075;-63
2022/09/30 02:46:07;;;;;;;38.63;22.08;;;9.30;99.90;;;;;;5031674;28;20112;-62
2022/09/30 02:48:57;;;;;;;38.13;22.75;;;9.40;99.90;;;;;;5031698;28;20021;-63
2022/09/30 02:51:34;;;;;;;34.90;22.02;;;9.40;99.90;;;;;;5030342;28;20033;-64
2022/09/30 02:54:27;;;;;;;36.58;21.77;;;9.50;99.90;;;;;;5031485;28;20100;-63
2022/09/30 02:57:07;;;;;;;36.88;23.25;;;9.40;99.90;;;;;;5045232;28;20131;-62
2022/09/30 02:59:32;;;;;;;39.25;23.63;;;9.50;99.90;;;;;;5050748;28;20451;-62
2022/09/30 03:01:58;;;;;;;38.17;23.70;;;9.50;99.90;;;;;;5050709;28;20124;-63
2022/09/30 03:04:27;;;;;;;37.05;21.85;;;9.40;99.90;;;;;;5051073;28;20021;-63
2022/09/30 03:06:54;;;;;;;32.30;21.77;;;9.50;99.90;;;;;;5051197;28;20025;-64
2022/09/30 03:09:27;;;;;;;34.30;22.38;;;9.50;99.90;;;;;;5033051;28;20491;-62
2022/09/30 03:12:23;;;;;;;35.67;21.48;;;9.50;99.90;;;;;;5050093;28;20021;-62
2022/09/30 03:15:07;;;;;;;36.10;22.27;;;9.50;99.90;;;;;;5050868;28;20053;-62
2022/09/30 03:17:51;;;;;;;37.20;23.38;;;9.50;99.90;;;;;;5032851;28;20090;-62
2022/09/30 03:20:53;;;;;;;32.67;21.70;;;9.50;99.90;;;;;;5050651;28;20045;-62
2022/09/30 03:23:26;;;;;;;34.75;20.80;;;9.50;99.90;;;;;;5050355;28;20109;-63
2022/09/30 03:26:05;;;;;;;39.45;23.70;;;9.50;99.90;;;;;;5050516;28;20036;-62
2022/09/30 03:28:46;;;;;;;33.38;22.58;;;9.50;99.90;;;;;;5050727;28;20025;-63
2022/09/30 03:31:49;;;;;;;37.70;22.30;;;9.50;99.90;;;;;;5050655;28;20036;-62
2022/09/30 03:34:20;;;;;;;36.42;21.90;;;9.50;99.90;;;;;;5050700;28;20033;-62
2022/09/30 03:37:21;;;;;;;36.60;21.92;;;9.50;99.90;;;;;;5050484;28;20044;-62
2022/09/30 03:39:55;;;;;;;32.58;21.20;;;9.50;99.90;;;;;;5036744;28;20085;-65
2022/09/30 03:42:25;;;;;;;35.28;22.45;;;9.60;99.90;;;;;;5048921;28;20047;-63
2022/09/30 03:45:07;;;;;;;37.40;24.00;;;9.50;99.90;;;;;;5050340;28;20025;-63
2022/09/30 03:47:36;;;;;;;41.33;23.25;;;9.50;99.90;;;;;;5049088;28;20120;-64
2022/09/30 03:50:07;;;;;;;33.92;21.55;;;9.50;99.90;;;;;;5050194;28;20477;-65
2022/09/30 03:52:36;;;;;;;37.40;23.08;;;9.50;99.90;;;;;;5050279;28;20069;-64
2022/09/30 03:55:06;;;;;;;34.35;21.90;;;9.50;99.90;;;;;;5050447;28;20439;-63
2022/09/30 03:57:32;;;;;;;34.67;21.77;;;9.50;99.90;;;;;;5064859;28;20446;-64
2022/09/30 03:59:59;;;;;;;40.50;24.70;;;9.50;99.90;;;;;;5050126;28;20051;-63
2022/09/30 04:02:25;;;;;;;42.57;25.07;;;9.50;99.90;;;;;;5050041;28;20377;-65
2022/09/30 04:04:51;;;;;;;41.80;24.38;;;9.50;99.90;;;;;;5049979;28;20036;-62
2022/09/30 04:07:17;;;;;;;42.38;24.02;;;9.50;99.90;;;;;;5050108;28;20037;-63
2022/09/30 04:09:43;;;;;;;39.95;23.60;;;9.50;99.90;;;;;;5049918;28;20052;-63
2022/09/30 04:12:09;;;;;;;40.47;23.58;;;9.50;99.90;;;;;;5049901;28;20528;-64
2022/09/30 04:14:34;;;;;;;39.83;23.60;;;9.50;99.90;;;;;;5031172;28;20036;-62
2022/09/30 04:17:02;;;;;;;43.45;23.55;;;9.50;99.90;;;;;;5049953;28;20063;-62
2022/09/30 04:19:27;;;;;;;37.15;23.70;;;9.60;99.90;;;;;;5050111;28;20033;-61
2022/09/30 04:21:54;;;;;;;37.63;23.77;;;9.50;99.90;;;;;;5049563;28;20037;-61
2022/09/30 04:24:21;;;;;;;36.88;24.25;;;9.60;99.90;;;;;;5049886;28;20029;-62
2022/09/30 04:26:47;;;;;;;;;;;9.60;99.90;;;;;;5050122;28;20033;-62
2022/09/30 04:29:13;;;;;;;36.50;22.17;;;9.60;99.90;;;;;;5049613;28;19911;-63
2022/09/30 04:31:38;;;;;;;42.78;24.65;;;9.60;99.90;;;;;;5049587;28;20115;-66
2022/09/30 04:34:04;;;;;;;41.25;24.48;;;9.70;99.90;;;;;;5049810;28;20075;-62
2022/09/30 04:36:30;;;;;;;38.50;23.60;;;9.70;99.90;;;;;;5049667;28;20017;-64
2022/09/30 04:38:57;;;;;;;37.90;22.95;;;9.70;99.90;;;;;;5049616;28;20041;-62
2022/09/30 04:41:23;;;;;;;38.40;22.63;;;9.60;99.90;;;;;;5049394;28;20049;-63
2022/09/30 04:43:49;;;;;;;39.80;23.50;;;9.60;99.90;;;;;;5031514;28;20471;-62
2022/09/30 04:46:17;;;;;;;36.17;22.35;;;9.70;99.90;;;;;;5049423;28;20029;-63
2022/09/30 04:48:44;;;;;;;38.90;23.52;;;9.70;99.90;;;;;;5049560;28;20175;-64
2022/09/30 04:51:20;;;;;;;37.42;23.80;;;9.60;99.90;;;;;;5049710;28;20033;-64
2022/09/30 04:53:46;;;;;;;37.58;24.90;;;9.70;99.90;;;;;;5049507;28;20086;-62
2022/09/30 04:56:13;;;;;;;43.63;23.85;;;9.70;99.90;;;;;;5028104;28;20519;-64
2022/09/30 04:58:39;;;;;;;37.38;22.95;;;9.70;99.90;;;;;;5029543;28;20036;-63
2022/09/30 05:01:10;;;;;;;40.22;23.88;;;9.70;99.90;;;;;;5029637;28;20042;-62
2022/09/30 05:03:36;;;;;;;38.20;23.20;;;9.70;99.90;;;;;;5029674;28;20112;-62
2022/09/30 05:06:03;;;;;;;41.60;24.73;;;9.80;99.90;;;;;;5029486;28;20040;-62
2022/09/30 05:08:31;;;;;;;39.45;25.23;;;9.80;99.90;;;;;;5029510;28;20029;-62
2022/09/30 05:10:57;;;;;;;;;;;9.80;99.90;;;;;;5029849;28;20044;-62
2022/09/30 05:13:24;;;;;;;44.22;24.92;;;9.80;99.90;;;;;;5029224;28;19911;-62
2022/09/30 05:15:50;;;;;;;40.47;23.35;;;9.80;99.90;;;;;;5028087;28;20075;-64
2022/09/30 05:18:18;;;;;;;38.53;23.35;;;9.90;99.90;;;;;;5029386;28;20750;-62
2022/09/30 05:20:43;;;;;;;;;;;9.90;99.90;;;;;;5029762;28;20041;-62
2022/09/30 05:23:09;;;;;;;39.58;22.55;;;9.90;99.90;;;;;;5029386;28;19909;-62
2022/09/30 05:25:35;;;;;;;31.13;21.10;;;9.90;99.90;;;;;;5030493;28;20053;-62
2022/09/30 05:28:00;;;;;;;39.45;22.60;;;9.90;99.90;;;;;;5032954;28;20022;-65
2022/09/30 05:30:27;;;;;;;40.67;24.20;;;9.90;99.90;;;;;;5032937;28;20026;-62
2022/09/30 05:32:53;;;;;;;38.17;24.20;;;9.90;99.90;;;;;;5033077;28;20113;-64
2022/09/30 05:35:18;;;;;;;39.22;23.52;;;9.90;99.90;;;;;;5033238;28;20112;-64
2022/09/30 05:37:44;;;;;;;39.67;23.67;;;10.00;99.90;;;;;;5032880;28;20362;-66
2022/09/30 05:40:10;;;;;;;45.78;24.65;;;10.00;99.90;;;;;;5032836;28;20083;-63
2022/09/30 05:42:35;;;;;;;49.55;25.08;;;10.00;99.90;;;;;;5032645;28;20061;-62
2022/09/30 05:45:05;;;;;;;42.22;26.08;;;10.00;99.90;;;;;;5032780;28;20025;-63
2022/09/30 05:47:32;;;;;;;44.35;25.92;;;10.00;99.90;;;;;;5032725;28;20036;-65
2022/09/30 05:49:58;;;;;;;44.83;26.55;;;10.00;99.90;;;;;;5032744;28;20111;-65
2022/09/30 05:52:24;;;;;;;46.47;25.70;;;10.00;99.90;;;;;;5032556;28;20029;-62
2022/09/30 05:54:50;;;;;;;45.90;27.67;;;10.10;99.90;;;;;;5031129;28;20032;-61
2022/09/30 05:57:16;;;;;;;46.78;27.40;;;10.00;99.90;;;;;;5049370;28;20048;-62
2022/09/30 05:59:42;;;;;;;44.58;27.98;;;10.10;99.90;;;;;;5052222;28;20111;-65
2022/09/30 06:02:09;;;;;;;45.60;28.02;;;10.10;99.90;;;;;;5052568;28;20054;-65
2022/09/30 06:04:35;;;;;;;47.63;27.77;;;10.10;99.90;;;;;;5034538;28;20253;-65
2022/09/30 06:07:01;;;;;;;47.55;28.45;;;10.10;99.90;;;;;;5052338;28;20730;-65
2022/09/30 06:09:26;;;;;;;55.38;28.55;;;10.10;99.90;;;;;;5052306;28;20025;-64
2022/09/30 06:11:54;;;;;;;45.15;27.92;;;10.10;99.90;;;;;;5033911;28;20120;-65
2022/09/30 06:14:21;;;;;;;45.25;27.92;;;10.20;99.90;;;;;;5052038;28;20374;-71
2022/09/30 06:16:47;;;;;;;44.28;27.27;;;10.20;99.90;;;;;;5052247;28;20013;-64
2022/09/30 06:19:13;;;;;;;51.33;28.80;;;10.20;99.90;;;;;;5052368;28;20040;-69
2022/09/30 06:21:40;;;;;;;46.40;28.85;;;10.30;99.90;;;;;;5051954;28;20540;-65
2022/09/30 06:24:08;;;;;;;52.47;30.15;;;10.30;99.90;;;;;;5033625;28;20025;-67
2022/09/30 06:26:33;;;;;;;50.60;29.05;;;10.30;99.90;;;;;;5052104;28;20045;-68
2022/09/30 06:28:59;;;;;;;56.47;28.98;;;10.30;99.90;;;;;;5033808;28;20082;-65
2022/09/30 06:31:25;;;;;;;46.30;30.90;;;10.40;99.90;;;;;;5051860;28;20053;-66
2022/09/30 06:33:53;;;;;;;50.22;29.10;;;10.40;99.90;;;;;;5051867;28;20060;-67
2022/09/30 06:36:19;;;;;;;44.42;27.17;;;10.40;99.90;;;;;;5051173;28;20133;-69
2022/09/30 06:38:50;;;;;;;45.88;26.83;;;10.40;99.90;;;;;;5050419;28;20103;-66
2022/09/30 06:41:16;;;;;;;44.97;27.67;;;10.40;99.90;;;;;;5049373;28;20040;-66
2022/09/30 06:43:41;;;;;;;48.97;29.33;;;10.50;99.90;;;;;;5051118;28;20032;-65
2022/09/30 06:46:08;;;;;;;46.35;29.20;;;10.50;99.90;;;;;;5051364;28;20469;-68
2022/09/30 06:48:33;;;;;;;46.30;27.58;;;10.50;99.90;;;;;;5051565;28;20021;-68
2022/09/30 06:50:59;;;;;;;44.92;26.98;;;10.50;99.90;;;;;;5033341;28;20032;-65
2022/09/30 06:53:26;;;;;;;46.28;28.02;;;10.50;99.90;;;;;;5050499;28;20041;-68
2022/09/30 06:55:56;;;;;;;49.08;28.35;;;10.60;99.90;;;;;;5047928;28;20036;-66
2022/09/30 06:58:25;;;;;;;49.13;29.05;;;10.60;99.90;;;;;;5033080;28;20048;-68
2022/09/30 07:01:03;;;;;;;46.42;28.08;;;10.60;99.90;;;;;;5051021;28;20043;-66
2022/09/30 07:03:31;;;;;;;52.47;29.88;;;10.60;99.90;;;;;;5051255;28;20074;-66
2022/09/30 07:05:59;;;;;;;48.20;29.80;;;10.70;99.90;;;;;;5033052;28;20423;-67
2022/09/30 07:08:30;;;;;;;50.80;29.63;;;10.70;99.90;;;;;;5051142;28;20029;-67
2022/09/30 07:11:11;;;;;;;51.08;29.63;;;10.70;99.90;;;;;;5051094;28;20078;-66
2022/09/30 07:13:38;;;;;;;51.63;31.38;;;10.70;99.90;;;;;;5050302;28;20029;-65
2022/09/30 07:16:04;;;;;;;50.50;29.80;;;10.70;99.90;;;;;;5050614;28;20107;-66
2022/09/30 07:18:30;;;;;;;53.75;32.92;;;10.80;99.90;;;;;;5050866;28;20110;-63
2022/09/30 07:20:56;;;;;;;57.03;34.45;;;10.90;99.90;;;;;;5050634;28;20068;-69
2022/09/30 07:23:25;;;;;;;56.67;34.10;;;10.90;99.90;;;;;;5047715;28;20020;-62
2022/09/30 07:26:03;;;;;;;52.65;31.70;;;10.90;99.90;;;;;;5049594;28;20020;-65
2022/09/30 07:28:32;;;;;;;48.30;30.67;;;11.00;99.90;;;;;;5047282;28;20025;-67
2022/09/30 07:31:01;;;;;;;54.22;34.25;;;11.00;99.90;;;;;;5048594;28;20428;-66
2022/09/30 07:33:30;;;;;;;50.58;31.65;;;11.00;99.90;;;;;;5032105;28;20106;-66
2022/09/30 07:35:57;;;;;;;51.17;31.95;;;11.00;99.90;;;;;;5047539;28;20036;-66
2022/09/30 07:38:26;;;;;;;48.50;32.63;;;11.10;99.90;;;;;;5049871;28;20040;-63
2022/09/30 07:41:00;;;;;;;51.20;31.85;;;11.10;99.90;;;;;;5050286;28;20408;-65
2022/09/30 07:43:33;;;;;;;46.30;29.25;;;11.10;99.90;;;;;;5032468;28;20040;-63
2022/09/30 07:46:07;;;;;;;47.47;30.13;;;11.10;99.90;;;;;;5050477;28;20199;-65
2022/09/30 07:48:43;;;;;;;43.30;27.83;;;11.00;99.90;;;;;;5050626;28;20117;-65
2022/09/30 07:51:25;;;;;;;41.67;27.42;;;11.10;99.90;;;;;;5050216;28;20029;-67
2022/09/30 07:53:53;;;;;;;38.28;25.98;;;11.20;99.90;;;;;;5050184;28;20025;-68
2022/09/30 07:56:20;;;;;;;41.22;25.17;;;11.20;99.90;;;;;;5049484;28;20155;-66
2022/09/30 07:58:47;;;;;;;41.38;26.00;;;11.20;99.90;;;;;;5049769;28;20025;-64
2022/09/30 08:01:13;;;;;;;35.08;24.00;;;11.20;99.90;;;;;;5049353;28;20044;-68
2022/09/30 08:03:43;;;;;;;40.22;23.25;;;11.20;99.90;;;;;;5031590;28;20055;-69
2022/09/30 08:06:15;;;;;;;38.78;24.30;;;11.30;99.90;;;;;;5049544;28;20033;-67
2022/09/30 08:08:43;;;;;;;33.72;22.00;;;11.30;99.90;;;;;;5047211;28;20039;-65
2022/09/30 08:11:10;;;;;;;33.70;22.65;;;11.30;99.90;;;;;;5049453;28;20074;-66
2022/09/30 08:13:36;;;;;;;34.20;21.45;;;11.30;99.90;;;;;;5049472;28;20086;-65
2022/09/30 08:16:02;;;;;;;34.75;22.70;;;11.40;99.90;;;;;;5049355;28;20516;-65
2022/09/30 08:18:28;;;;;;;37.15;22.25;;;11.40;99.90;;;;;;5049245;28;20040;-63
2022/09/30 08:20:54;;;;;;;30.38;20.60;;;11.40;99.90;;;;;;5031277;28;20028;-60
2022/09/30 08:23:20;;;;;;;31.23;20.27;;;11.40;99.90;;;;;;5049328;28;20491;-64
2022/09/30 08:25:46;;;;;;;24.58;18.45;;;11.40;99.90;;;;;;5049174;28;20041;-63
2022/09/30 08:28:12;;;;;;;30.42;19.58;;;11.40;99.90;;;;;;5049261;28;20039;-62
2022/09/30 08:30:39;;;;;;;29.10;18.42;;;11.50;99.90;;;;;;5049103;28;20112;-64
2022/09/30 08:33:05;;;;;;;;;;;11.50;99.90;;;;;;5048885;28;20025;-67
2022/09/30 08:35:33;;;;;;;24.10;17.45;;;11.60;99.90;;;;;;5048720;28;19955;-66
2022/09/30 08:37:58;;;;;;;32.13;19.35;;;11.60;99.90;;;;;;5048988;28;20029;-66
2022/09/30 08:40:28;;;;;;;25.48;16.85;;;11.60;99.90;;;;;;5048747;28;20037;-71
2022/09/30 08:43:09;;;;;;;23.73;17.00;;;11.60;99.90;;;;;;5046029;28;20138;-64
2022/09/30 08:46:02;;;;;;;28.33;15.90;;;11.60;99.90;;;;;;5046663;28;20025;-66
2022/09/30 08:48:50;;;;;;;24.17;15.38;;;11.60;99.90;;;;;;5029918;28;20017;-63
2022/09/30 08:51:34;;;;;;;20.02;14.00;;;11.60;99.90;;;;;;5037883;28;20404;-65
2022/09/30 08:54:04;;;;;;;22.60;15.30;;;11.60;99.90;;;;;;5049513;28;20108;-63
2022/09/30 08:56:31;;;;;;;20.50;13.38;;;11.60;99.90;;;;;;5048355;28;20496;-64
2022/09/30 08:59:04;;;;;;;22.30;14.25;;;11.60;99.90;;;;;;5048589;28;20033;-64
2022/09/30 09:01:37;;;;;;;19.13;14.23;;;11.60;99.90;;;;;;5033423;28;20041;-66
2022/09/30 09:04:04;;;;;;;19.45;13.48;;;11.60;99.90;;;;;;5050484;28;20021;-65
2022/09/30 09:06:39;;;;;;;19.70;13.32;;;11.60;99.90;;;;;;5052804;28;20060;-64
2022/09/30 09:09:33;;;;;;;20.02;14.10;;;11.70;99.90;;;;;;5050953;28;20017;-66
2022/09/30 09:12:41;;;;;;;20.83;14.57;;;11.70;99.90;;;;;;5052572;28;20074;-64
2022/09/30 09:15:12;;;;;;;19.55;13.60;;;11.70;99.90;;;;;;5052538;28;20021;-68
2022/09/30 09:18:01;;;;;;;21.10;13.93;;;11.80;99.90;;;;;;5053078;28;20036;-67
2022/09/30 09:20:37;;;;;;;24.52;14.43;;;11.70;99.90;;;;;;5053137;28;20052;-66
2022/09/30 09:23:07;;;;;;;21.13;14.40;;;11.70;99.90;;;;;;5035187;28;20122;-67
2022/09/30 09:25:33;;;;;;;23.83;13.93;;;11.80;99.90;;;;;;5051441;28;20053;-64
2022/09/30 09:28:01;;;;;;;20.08;14.35;;;11.80;99.90;;;;;;5042732;28;20102;-65
2022/09/30 09:30:34;;;;;;;;;;;11.80;99.90;;;;;;5053401;28;20041;-63
2022/09/30 09:33:14;;;;;;;18.50;12.63;;;11.80;99.90;;;;;;5034269;28;19917;-65
2022/09/30 09:35:57;;;;;;;19.20;13.82;;;11.90;99.90;;;;;;5052418;28;20104;-62
2022/09/30 09:38:30;;;;;;;21.60;14.27;;;11.90;99.90;;;;;;5034419;28;20151;-65
2022/09/30 09:41:14;;;;;;;21.77;13.95;;;11.90;99.90;;;;;;5052244;28;20041;-67
2022/09/30 09:43:50;;;;;;;23.38;15.73;;;12.10;99.90;;;;;;5051336;28;20025;-68
2022/09/30 09:46:42;;;;;;;23.58;15.80;;;12.00;99.90;;;;;;5049453;28;20037;-68
2022/09/30 09:49:19;;;;;;;26.80;17.60;;;12.10;99.90;;;;;;5043840;28;20078;-66
2022/09/30 09:51:57;;;;;;;25.77;17.63;;;12.10;99.90;;;;;;5052263;28;20024;-66
2022/09/30 09:54:23;;;;;;;;;;;12.10;99.90;;;;;;5052365;28;20033;-62
2022/09/30 09:56:51;;;;;;;27.48;18.77;;;12.10;99.90;;;;;;5030344;28;19921;-66
2022/09/30 09:59:18;;;;;;;32.00;19.65;;;12.10;99.90;;;;;;5032622;28;20075;-63
2022/09/30 10:01:51;;;;;;;26.98;18.85;;;12.10;99.90;;;;;;5032440;28;20393;-64
2022/09/30 10:04:24;;;;;;;29.88;19.58;;;12.10;99.90;;;;;;5032461;28;20045;-63
2022/09/30 10:06:54;;;;;;;31.10;19.60;;;12.10;99.90;;;;;;5032271;28;20071;-63
2022/09/30 10:09:41;;;;;;;28.25;19.23;;;12.10;99.90;;;;;;5032086;28;20021;-63
2022/09/30 10:12:07;;;;;;;29.98;18.27;;;12.00;99.90;;;;;;5030688;28;20035;-62
2022/09/30 10:14:47;;;;;;;28.63;19.45;;;11.90;99.90;;;;;;5031976;28;20021;-63
2022/09/30 10:17:34;;;;;;;30.10;18.67;;;11.90;99.90;;;;;;5029831;28;20059;-63
2022/09/30 10:20:16;;;;;;;28.55;18.52;;;12.00;99.90;;;;;;5031000;28;20021;-64
2022/09/30 10:22:42;;;;;;;29.25;18.58;;;11.90;99.90;;;;;;5030362;28;20409;-62
2022/09/30 10:25:13;;;;;;;32.47;19.20;;;11.90;99.90;;;;;;5031569;28;20029;-62
2022/09/30 10:27:50;;;;;;;27.33;19.90;;;12.00;99.90;;;;;;5032292;28;20029;-63
2022/09/30 10:30:33;;;;;;;218.00;142.15;;;11.90;99.90;;;;;;5032027;28;20101;-62
2022/09/30 10:33:03;;;;;;;34.72;22.67;;;12.00;99.90;;;;;;5031884;28;20813;-66
2022/09/30 10:35:29;;;;;;;32.25;20.90;;;12.10;99.90;;;;;;5030052;28;20029;-63
2022/09/30 10:37:58;;;;;;;26.57;19.07;;;12.10;99.90;;;;;;5028495;28;20060;-67
2022/09/30 10:40:27;;;;;;;31.65;20.27;;;12.10;99.90;;;;;;5039261;28;20385;-62
2022/09/30 10:42:54;;;;;;;31.27;19.15;;;12.10;99.90;;;;;;5051565;28;20508;-65
2022/09/30 10:45:24;;;;;;;26.33;18.80;;;12.20;99.90;;;;;;5038848;28;20045;-64
2022/09/30 10:47:52;;;;;;;30.42;19.95;;;12.20;99.90;;;;;;5030781;28;20112;-65
2022/09/30 10:50:25;;;;;;;26.38;18.15;;;12.20;99.90;;;;;;5031419;28;20080;-65
2022/09/30 10:53:19;;;;;;;29.33;20.42;;;12.30;99.90;;;;;;5031264;28;20049;-66
2022/09/30 10:55:45;;;;;;;31.58;21.13;;;12.30;99.90;;;;;;5035894;28;20424;-65
2022/09/30 10:58:41;;;;;;;31.75;23.05;;;12.30;99.90;;;;;;5033923;28;20036;-64
2022/09/30 11:01:24;;;;;;;34.67;24.98;;;12.20;99.90;;;;;;5031145;28;20037;-64
2022/09/30 11:04:08;;;;;;;34.95;26.60;;;12.30;99.90;;;;;;5042062;28;20136;-67
2022/09/30 11:06:41;;;;;;;37.35;27.30;;;12.30;99.90;;;;;;5051013;28;20120;-65
2022/09/30 11:09:37;;;;;;;37.83;26.73;;;12.20;99.90;;;;;;5050885;28;20021;-68
2022/09/30 11:12:34;;;;;;;39.35;28.52;;;12.30;99.90;;;;;;5050458;28;20017;-65
2022/09/30 11:14:59;;;;;;;34.28;26.38;;;12.30;99.90;;;;;;5029122;28;20049;-62
2022/09/30 11:17:28;;;;;;;38.00;26.70;;;12.30;99.90;;;;;;5050844;28;20495;-64
2022/09/30 11:20:13;;;;;;;43.50;28.42;;;12.30;99.90;;;;;;5024506;28;20716;-66
2022/09/30 11:23:11;;;;;;;40.03;25.40;;;12.30;99.90;;;;;;5048702;28;20055;-63
2022/09/30 11:26:20;;;;;;;55.28;37.88;;;12.30;99.90;;;;;;5009810;28;20060;-68
2022/09/30 11:28:45;;;;;;;33.92;23.63;;;12.30;99.90;;;;;;5048121;28;20025;-68
2022/09/30 11:31:43;;;;;;;36.70;24.90;;;12.30;99.90;;;;;;5025074;28;20539;-65
2022/09/30 11:34:26;;;;;;;38.95;23.92;;;12.20;99.90;;;;;;5013470;28;20542;-66
2022/09/30 11:37:20;;;;;;;32.70;23.25;;;12.20;99.90;;;;;;5049802;28;20025;-64
2022/09/30 11:39:45;;;;;;;35.58;24.42;;;12.20;99.90;;;;;;5030811;28;20531;-63
2022/09/30 11:42:38;;;;;;;29.45;22.50;;;12.20;99.90;;;;;;5049641;28;20041;-62
2022/09/30 11:45:34;;;;;;;27.25;21.27;;;12.30;99.90;;;;;;5029467;28;20102;-61
2022/09/30 11:48:18;;;;;;;29.05;21.08;;;12.20;99.90;;;;;;5012903;28;20025;-66
2022/09/30 11:53:33;;;;;;;31.77;22.23;;;12.30;99.90;;;;;;5135148;22;20576;-63
2022/09/30 11:56:35;;;;;;;30.52;21.30;;;12.30;99.90;;;;;;5107502;28;20124;-64
2022/09/30 11:59:06;;;;;;;29.15;21.40;;;12.30;99.90;;;;;;5086288;28;20075;-64
2022/09/30 12:01:36;;;;;;;25.30;18.15;;;12.30;99.90;;;;;;5108221;28;20123;-63
2022/09/30 12:04:19;;;;;;;28.27;19.15;;;12.30;99.90;;;;;;5108685;28;20024;-63
2022/09/30 12:06:54;;;;;;;29.63;18.92;;;12.30;99.90;;;;;;5108709;28;20348;-62
2022/09/30 12:09:26;;;;;;;28.60;19.70;;;12.30;99.90;;;;;;5108435;28;20019;-63
2022/09/30 12:12:12;;;;;;;25.88;18.10;;;12.30;99.90;;;;;;5090898;28;20080;-65
2022/09/30 12:14:50;;;;;;;27.80;17.83;;;12.20;99.90;;;;;;5109070;28;20051;-64
2022/09/30 12:17:37;;;;;;;29.27;19.67;;;12.20;99.90;;;;;;5106517;28;20038;-63
2022/09/30 12:20:10;;;;;;;31.10;20.85;;;12.20;99.90;;;;;;5089654;28;20034;-63
2022/09/30 12:22:42;;;;;;;28.63;19.63;;;12.20;99.90;;;;;;5106780;28;20035;-63
2022/09/30 12:25:35;;;;;;;27.33;19.05;;;12.20;99.90;;;;;;5091092;28;20030;-64
2022/09/30 12:30:15;;;;;;;24.95;18.20;;;12.20;99.90;;;;;;5097009;28;20034;-65
2022/09/30 12:31:03;;;;;;;27.38;18.30;;;12.30;99.90;;;;;;5109704;28;20072;-65
2022/09/30 12:33:56;;;;;;;30.63;18.45;;;12.30;99.90;;;;;;5091360;28;20119;-63
2022/09/30 12:36:45;;;;;;;28.10;18.45;;;12.30;99.90;;;;;;5108966;28;20679;-69
2022/09/30 12:39:29;;;;;;;;;;;12.30;99.90;;;;;;5096395;28;20099;-64
2022/09/30 12:42:14;;;;;;;25.63;17.52;;;12.40;99.90;;;;;;5091121;28;19922;-63
2022/09/30 12:45:18;;;;;;;28.80;20.05;;;12.30;99.90;;;;;;5109503;28;20057;-61
2022/09/30 12:48:07;;;;;;;27.38;18.17;;;12.30;99.90;;;;;;5108514;28;20028;-62
2022/09/30 12:50:51;;;;;;;40.65;22.73;;;12.40;99.90;;;;;;5088116;28;20043;-66
2022/09/30 12:53:30;;;;;;;28.85;18.65;;;12.40;99.90;;;;;;5105412;28;20107;-63
2022/09/30 12:56:08;;;;;;;27.85;18.60;;;12.40;99.90;;;;;;5108822;28;20035;-67
2022/09/30 12:58:42;;;;;;;31.13;20.55;;;12.40;99.90;;;;;;5090441;28;20053;-64
2022/09/30 13:01:16;;;;;;;38.58;25.70;;;12.40;99.90;;;;;;5108907;28;20512;-61
2022/09/30 13:04:08;;;;;;;39.05;25.85;;;12.40;99.90;;;;;;5090571;28;20118;-66
2022/09/30 13:06:46;;;;;;;55.08;35.75;;;12.40;99.90;;;;;;5107633;28;20147;-64
2022/09/30 13:09:15;;;;;;;47.35;30.10;;;12.30;99.90;;;;;;5087583;28;20564;-62